createdAt,value
2017-09-29T00:02:17.532Z,14.50
2017-09-29T00:04:45.154Z,14.40
2017-09-29T00:07:12.773Z,14.50
2017-09-29T00:09:40.417Z,14.50
2017-09-29T00:12:08.037Z,14.40
2017-09-29T00:14:35.694Z,14.50
2017-09-29T00:17:04.074Z,14.50
2017-09-29T00:19:31.691Z,14.40
2017-09-29T00:21:59.331Z,14.50
2017-09-29T00:24:26.960Z,14.50
2017-09-29T00:26:54.619Z,14.40
2017-09-29T00:29:22.243Z,14.50
2017-09-29T00:31:49.877Z,14.40
2017-09-29T00:34:17.518Z,14.30
2017-09-29T00:36:45.220Z,14.30
2017-09-29T00:39:12.870Z,14.30
2017-09-29T00:41:40.488Z,14.40
2017-09-29T00:44:08.122Z,14.30
2017-09-29T00:46:35.770Z,14.30
2017-09-29T00:49:03.413Z,14.20
2017-09-29T00:51:31.067Z,14.30
2017-09-29T00:53:58.697Z,14.30
2017-09-29T00:56:26.309Z,14.40
2017-09-29T00:58:54.725Z,14.30
2017-09-29T01:01:22.346Z,14.20
2017-09-29T01:03:50.009Z,14.30
2017-09-29T01:06:17.692Z,14.40
2017-09-29T01:08:46.098Z,14.20
2017-09-29T01:11:13.737Z,14.20
2017-09-29T01:13:41.358Z,14.30
2017-09-29T01:16:09.794Z,14.30
2017-09-29T01:18:37.415Z,14.20
2017-09-29T01:21:05.030Z,14.30
2017-09-29T01:23:33.438Z,14.30
2017-09-29T01:26:01.074Z,14.30
2017-09-29T01:28:28.740Z,14.30
2017-09-29T01:30:56.358Z,14.20
2017-09-29T01:33:23.978Z,14.20
2017-09-29T01:35:52.398Z,14.20
2017-09-29T01:38:20.026Z,14.10
2017-09-29T01:40:47.688Z,14.20
2017-09-29T01:43:15.318Z,14.10
2017-09-29T01:45:42.939Z,14.20
2017-09-29T01:48:10.578Z,14.20
2017-09-29T01:50:38.203Z,14.10
2017-09-29T01:53:05.860Z,14.20
2017-09-29T01:55:34.246Z,14.10
2017-09-29T01:58:01.868Z,14.10
2017-09-29T02:00:30.288Z,14.10
2017-09-29T02:02:57.909Z,14.10
2017-09-29T02:05:25.566Z,14.20
2017-09-29T02:07:53.190Z,14.20
2017-09-29T02:10:20.816Z,14.30
2017-09-29T02:12:49.225Z,14.20
2017-09-29T02:15:16.842Z,14.20
2017-09-29T02:17:44.500Z,14.20
2017-09-29T02:20:12.127Z,14.20
2017-09-29T02:22:40.518Z,14.20
2017-09-29T02:25:08.158Z,14.10
2017-09-29T02:27:35.782Z,14.20
2017-09-29T02:30:04.207Z,14.20
2017-09-29T02:32:31.833Z,14.10
2017-09-29T02:34:59.458Z,14.20
2017-09-29T02:37:27.100Z,14.30
2017-09-29T02:39:54.722Z,14.20
2017-09-29T02:42:23.151Z,14.20
2017-09-29T02:44:50.770Z,14.10
2017-09-29T02:47:18.391Z,14.10
2017-09-29T02:49:46.794Z,14.10
2017-09-29T02:52:14.405Z,14.10
2017-09-29T02:54:42.830Z,14.10
2017-09-29T02:57:19.112Z,14.00
2017-09-29T02:59:54.326Z,14.10
2017-09-29T03:02:26.434Z,14.10
2017-09-29T03:04:56.838Z,14.10
2017-09-29T03:07:24.462Z,14.20
2017-09-29T03:09:52.089Z,14.20
2017-09-29T03:12:20.498Z,14.20
2017-09-29T03:14:48.115Z,14.10
2017-09-29T03:17:15.771Z,14.10
2017-09-29T03:19:43.390Z,14.10
2017-09-29T03:22:11.779Z,14.00
2017-09-29T03:24:39.434Z,14.00
2017-09-29T03:27:07.059Z,14.10
2017-09-29T03:29:34.713Z,14.10
2017-09-29T03:32:02.330Z,14.10
2017-09-29T03:34:29.973Z,14.10
2017-09-29T03:36:58.381Z,14.00
2017-09-29T03:39:26.007Z,13.90
2017-09-29T03:41:53.657Z,13.90
2017-09-29T03:44:21.302Z,13.90
2017-09-29T03:46:49.033Z,13.90
2017-09-29T03:49:17.450Z,13.80
2017-09-29T03:51:50.861Z,13.80
2017-09-29T03:54:21.305Z,13.80
2017-09-29T03:56:51.529Z,13.80
2017-09-29T03:59:24.503Z,13.80
2017-09-29T04:01:52.234Z,13.80
2017-09-29T04:04:19.887Z,13.70
2017-09-29T04:06:47.592Z,13.70
2017-09-29T04:09:15.211Z,13.70
2017-09-29T04:11:42.849Z,13.70
2017-09-29T04:14:10.471Z,13.60
2017-09-29T04:16:38.121Z,13.70
2017-09-29T04:19:05.741Z,13.70
2017-09-29T04:21:34.122Z,13.70
2017-09-29T04:24:01.771Z,13.70
2017-09-29T04:26:29.393Z,13.70
2017-09-29T04:28:57.051Z,13.70
2017-09-29T04:31:24.688Z,13.70
2017-09-29T04:33:53.081Z,13.60
2017-09-29T04:36:20.723Z,13.60
2017-09-29T04:38:48.346Z,13.60
2017-09-29T04:41:16.766Z,13.50
2017-09-29T04:43:44.394Z,13.50
2017-09-29T04:46:12.012Z,13.50
2017-09-29T04:48:40.463Z,13.40
2017-09-29T04:51:08.851Z,13.50
2017-09-29T04:53:36.505Z,13.40
2017-09-29T04:56:04.123Z,13.50
2017-09-29T04:58:32.558Z,13.50
2017-09-29T05:01:00.234Z,13.40
2017-09-29T05:03:28.618Z,13.40
2017-09-29T05:05:56.273Z,13.30
2017-09-29T05:08:23.890Z,13.40
2017-09-29T05:10:52.282Z,13.40
2017-09-29T05:13:19.921Z,13.30
2017-09-29T05:15:47.546Z,13.40
2017-09-29T05:18:15.206Z,13.40
2017-09-29T05:20:42.821Z,13.40
2017-09-29T05:23:10.443Z,13.40
2017-09-29T05:25:38.094Z,13.30
2017-09-29T05:28:05.723Z,13.30
2017-09-29T05:30:33.383Z,13.30
2017-09-29T05:33:01.002Z,13.30
2017-09-29T05:35:28.617Z,13.20
2017-09-29T05:37:56.265Z,13.30
2017-09-29T05:40:24.671Z,13.20
2017-09-29T05:42:53.152Z,13.30
2017-09-29T05:45:20.771Z,13.30
2017-09-29T05:47:48.400Z,13.30
2017-09-29T05:50:16.813Z,13.40
2017-09-29T05:52:44.433Z,13.40
2017-09-29T05:55:12.086Z,13.40
2017-09-29T05:57:39.743Z,13.50
2017-09-29T06:00:07.373Z,13.50
2017-09-29T06:02:35.015Z,13.50
2017-09-29T06:05:02.630Z,13.60
2017-09-29T06:07:31.053Z,13.60
2017-09-29T06:09:58.673Z,13.50
2017-09-29T06:12:26.289Z,13.50
2017-09-29T06:14:54.698Z,13.50
2017-09-29T06:17:22.313Z,13.50
2017-09-29T06:19:50.733Z,13.50
2017-09-29T06:22:18.351Z,13.50
2017-09-29T06:24:45.979Z,13.50
2017-09-29T06:27:13.633Z,13.60
2017-09-29T06:29:41.251Z,13.50
2017-09-29T06:32:09.676Z,13.60
2017-09-29T06:34:37.308Z,13.60
2017-09-29T06:37:04.954Z,13.70
2017-09-29T06:39:32.705Z,13.80
2017-09-29T06:42:00.335Z,14.40
2017-09-29T06:44:28.000Z,15.40
2017-09-29T06:46:55.636Z,16.10
2017-09-29T06:49:23.257Z,16.70
2017-09-29T06:51:50.873Z,16.90
2017-09-29T06:54:18.461Z,17.00
2017-09-29T06:56:46.855Z,18.20
2017-09-29T06:59:14.450Z,18.20
2017-09-29T07:01:42.077Z,18.60
2017-09-29T07:04:09.679Z,18.20
2017-09-29T07:06:37.270Z,17.90
2017-09-29T07:09:04.890Z,18.40
2017-09-29T07:11:32.481Z,19.20
2017-09-29T07:14:00.121Z,19.30
2017-09-29T07:16:27.713Z,18.80
2017-09-29T07:18:55.311Z,18.50
2017-09-29T07:21:22.943Z,18.40
2017-09-29T07:23:50.558Z,18.10
2017-09-29T07:26:26.263Z,17.90
2017-09-29T07:28:58.898Z,17.60
2017-09-29T07:31:33.122Z,17.60
2017-09-29T07:34:01.488Z,17.40
2017-09-29T07:36:29.898Z,17.20
2017-09-29T07:38:57.520Z,17.10
2017-09-29T07:41:25.163Z,17.10
2017-09-29T07:43:52.825Z,16.90
2017-09-29T07:46:20.463Z,16.80
2017-09-29T07:48:48.122Z,16.80
2017-09-29T07:51:15.745Z,16.90
2017-09-29T07:53:43.367Z,16.90
2017-09-29T07:56:11.012Z,16.90
2017-09-29T07:58:38.634Z,16.90
2017-09-29T08:01:06.330Z,16.90
2017-09-29T08:03:33.968Z,17.00
2017-09-29T08:06:01.654Z,17.00
2017-09-29T08:08:29.313Z,17.20
2017-09-29T08:10:56.906Z,17.40
2017-09-29T08:13:25.306Z,19.50
2017-09-29T08:15:52.898Z,19.40
2017-09-29T08:18:20.490Z,19.90
2017-09-29T08:20:48.107Z,20.30
2017-09-29T08:23:16.471Z,21.00
2017-09-29T08:25:44.869Z,20.80
2017-09-29T08:28:12.463Z,20.70
2017-09-29T08:30:40.062Z,21.10
2017-09-29T08:33:07.681Z,21.80
2017-09-29T08:35:35.279Z,21.70
2017-09-29T08:38:02.906Z,21.40
2017-09-29T08:40:30.497Z,22.00
2017-09-29T08:42:58.087Z,22.30
2017-09-29T08:45:25.703Z,22.60
2017-09-29T08:47:53.293Z,23.30
2017-09-29T08:50:20.922Z,22.90
2017-09-29T08:52:48.524Z,22.60
2017-09-29T08:55:16.134Z,23.20
2017-09-29T08:57:43.750Z,23.80
2017-09-29T09:00:11.332Z,23.30
2017-09-29T09:02:38.954Z,24.00
2017-09-29T09:05:06.538Z,23.70
2017-09-29T09:07:34.253Z,23.40
2017-09-29T09:10:01.863Z,24.00
2017-09-29T09:12:30.218Z,22.80
2017-09-29T09:14:58.609Z,23.50
2017-09-29T09:17:26.200Z,23.50
2017-09-29T09:19:53.796Z,24.50
2017-09-29T09:22:21.406Z,23.80
2017-09-29T09:24:49.002Z,23.60
2017-09-29T09:27:16.632Z,22.60
2017-09-29T09:29:44.226Z,22.30
2017-09-29T09:32:11.814Z,22.90
2017-09-29T09:34:40.202Z,22.40
2017-09-29T09:37:07.790Z,22.40
2017-09-29T09:39:35.424Z,22.50
2017-09-29T09:42:03.034Z,22.90
2017-09-29T09:44:30.633Z,23.20
2017-09-29T09:46:58.294Z,22.90
2017-09-29T09:49:26.675Z,23.00
2017-09-29T09:51:54.314Z,23.00
2017-09-29T09:54:22.673Z,23.20
2017-09-29T09:56:51.024Z,24.10
2017-09-29T09:59:18.642Z,24.10
2017-09-29T10:01:46.234Z,24.40
2017-09-29T10:04:14.636Z,24.90
2017-09-29T10:06:42.237Z,24.90
2017-09-29T10:09:10.593Z,24.40
2017-09-29T10:11:38.206Z,24.40
2017-09-29T10:14:05.789Z,24.40
2017-09-29T10:16:34.182Z,24.40
2017-09-29T10:19:01.770Z,24.40
2017-09-29T10:21:29.366Z,24.70
2017-09-29T10:23:56.978Z,24.90
2017-09-29T10:26:24.565Z,23.90
2017-09-29T10:28:52.190Z,23.70
2017-09-29T10:31:20.542Z,23.70
2017-09-29T10:33:48.157Z,23.70
2017-09-29T10:36:15.782Z,22.80
2017-09-29T10:38:43.378Z,22.60
2017-09-29T10:41:11.779Z,23.00
2017-09-29T10:43:39.383Z,22.90
2017-09-29T10:46:07.738Z,22.40
2017-09-29T10:48:35.376Z,22.30
2017-09-29T10:51:02.980Z,22.40
2017-09-29T10:53:30.601Z,22.30
2017-09-29T10:55:58.198Z,22.10
2017-09-29T10:58:25.789Z,22.10
2017-09-29T11:00:53.411Z,22.10
2017-09-29T11:03:21.006Z,22.00
2017-09-29T11:05:48.635Z,22.00
2017-09-29T11:08:16.233Z,21.90
2017-09-29T11:10:43.833Z,21.80
2017-09-29T11:13:11.465Z,21.90
2017-09-29T11:15:39.063Z,22.00
2017-09-29T11:18:06.700Z,22.00
2017-09-29T11:20:34.289Z,21.80
2017-09-29T11:23:02.647Z,21.70
2017-09-29T11:25:30.263Z,21.60
2017-09-29T11:27:57.854Z,21.80
2017-09-29T11:30:25.503Z,21.70
2017-09-29T11:32:53.095Z,21.70
2017-09-29T11:35:20.679Z,21.70
2017-09-29T11:37:49.059Z,21.70
2017-09-29T11:40:16.663Z,21.60
2017-09-29T11:42:49.169Z,21.60
2017-09-29T11:45:18.977Z,21.40
2017-09-29T11:47:51.791Z,21.40
2017-09-29T11:50:20.650Z,21.40
2017-09-29T11:52:51.166Z,21.30
2017-09-29T11:55:18.917Z,21.30
2017-09-29T11:57:52.476Z,21.30
2017-09-29T12:00:33.442Z,21.10
2017-09-29T12:03:01.068Z,21.10
2017-09-29T12:05:28.688Z,21.00
2017-09-29T12:07:57.053Z,21.00
2017-09-29T12:10:25.453Z,21.10
2017-09-29T12:12:53.074Z,21.00
2017-09-29T12:15:21.434Z,21.20
2017-09-29T12:17:49.083Z,21.10
2017-09-29T12:20:16.688Z,21.10
2017-09-29T12:22:44.297Z,21.30
2017-09-29T12:25:12.063Z,21.20
2017-09-29T12:27:39.674Z,21.10
2017-09-29T12:30:07.306Z,21.10
2017-09-29T12:32:35.671Z,21.20
2017-09-29T12:35:04.044Z,21.10
2017-09-29T12:37:31.670Z,21.10
2017-09-29T12:39:59.272Z,21.10
2017-09-29T12:42:26.907Z,21.20
2017-09-29T12:44:54.504Z,21.10
2017-09-29T12:47:22.099Z,21.30
2017-09-29T12:49:49.710Z,21.20
2017-09-29T12:52:18.082Z,21.30
2017-09-29T12:54:45.717Z,21.20
2017-09-29T12:57:14.080Z,21.30
2017-09-29T12:59:42.442Z,21.40
2017-09-29T13:02:10.824Z,21.20
2017-09-29T13:04:38.430Z,21.20
2017-09-29T13:07:06.062Z,21.20
2017-09-29T13:09:33.707Z,21.00
2017-09-29T13:12:01.296Z,21.00
2017-09-29T13:14:29.921Z,21.40
2017-09-29T13:16:57.507Z,21.30
2017-09-29T13:19:25.885Z,21.90
2017-09-29T13:21:53.474Z,21.90
2017-09-29T13:24:21.096Z,22.60
2017-09-29T13:26:48.674Z,23.40
2017-09-29T13:29:16.266Z,23.60
2017-09-29T13:31:43.875Z,24.10
2017-09-29T13:34:11.464Z,24.90
2017-09-29T13:36:39.089Z,24.50
2017-09-29T13:39:07.438Z,24.40
2017-09-29T13:41:35.013Z,24.30
2017-09-29T13:44:02.625Z,24.10
2017-09-29T13:46:30.206Z,24.00
2017-09-29T13:48:57.821Z,23.90
2017-09-29T13:51:25.410Z,23.80
2017-09-29T13:53:53.002Z,23.80
2017-09-29T13:56:20.608Z,23.30
2017-09-29T13:58:48.190Z,23.70
2017-09-29T15:23:12.986Z,23.90
2017-09-29T15:25:40.586Z,19.90
2017-09-29T15:28:08.981Z,19.70
2017-09-29T15:30:36.570Z,19.60
2017-09-29T15:33:04.157Z,19.70
2017-09-29T15:35:31.773Z,19.70
2017-09-29T15:37:59.365Z,19.60
2017-09-29T15:40:27.002Z,19.50
2017-09-29T15:42:54.597Z,19.60
2017-09-29T15:45:22.204Z,19.60
2017-09-29T15:47:49.823Z,19.50
2017-09-29T15:50:17.421Z,19.50
2017-09-29T15:52:45.049Z,19.40
2017-09-29T15:55:12.646Z,19.40
2017-09-29T15:57:40.236Z,19.40
2017-09-29T16:00:07.861Z,19.30
2017-09-29T16:02:35.453Z,19.20
2017-09-29T16:05:03.095Z,19.20
2017-09-29T16:07:30.697Z,19.10
2017-09-29T16:09:58.293Z,19.00
2017-09-29T16:12:25.917Z,19.00
2017-09-29T16:14:53.514Z,19.00
2017-09-29T16:17:21.146Z,19.00
2017-09-29T16:19:48.753Z,18.90
2017-09-29T16:22:16.345Z,18.70
2017-09-29T16:24:43.965Z,18.70
2017-09-29T16:27:11.561Z,18.70
2017-09-29T16:29:39.955Z,18.50
2017-09-29T16:32:07.557Z,18.40
2017-09-29T16:34:35.931Z,18.40
2017-09-29T16:37:03.553Z,18.30
2017-09-29T16:39:31.154Z,18.30
2017-09-29T16:41:58.790Z,18.20
2017-09-29T16:44:26.410Z,18.10
2017-09-29T16:46:54.012Z,18.00
2017-09-29T16:49:21.661Z,17.90
2017-09-29T16:51:49.261Z,17.80
2017-09-29T16:54:16.949Z,17.80
2017-09-29T16:56:44.569Z,17.70
2017-09-29T16:59:12.172Z,17.50
2017-09-29T17:01:40.558Z,17.30
2017-09-29T17:04:08.157Z,17.30
2017-09-29T17:06:35.799Z,17.20
2017-09-29T17:09:03.408Z,17.10
2017-09-29T17:11:31.026Z,17.00
2017-09-29T17:13:58.687Z,16.90
2017-09-29T17:16:26.318Z,16.90
2017-09-29T17:18:54.718Z,16.50
2017-09-29T17:21:22.345Z,16.50
2017-09-29T17:23:49.962Z,16.40
2017-09-29T17:26:18.382Z,16.10
2017-09-29T17:28:46.009Z,16.00
2017-09-29T17:31:13.670Z,16.00
2017-09-29T17:33:41.294Z,15.90
2017-09-29T17:36:08.921Z,15.80
2017-09-29T17:38:36.596Z,15.80
2017-09-29T17:41:04.217Z,15.70
2017-09-29T17:43:31.884Z,15.60
2017-09-29T17:45:59.512Z,15.50
2017-09-29T17:48:27.133Z,15.40
2017-09-29T17:50:55.550Z,15.30
2017-09-29T17:53:23.173Z,15.20
2017-09-29T17:55:50.837Z,15.20
2017-09-29T17:58:18.462Z,15.20
2017-09-29T18:00:46.081Z,15.00
2017-09-29T18:03:13.730Z,15.00
2017-09-29T18:05:42.122Z,14.90
2017-09-29T18:08:09.781Z,14.80
2017-09-29T18:10:38.826Z,14.70
2017-09-29T18:13:06.449Z,14.70
2017-09-29T18:15:34.102Z,14.60
2017-09-29T18:18:01.733Z,14.60
2017-09-29T18:20:29.397Z,14.50
2017-09-29T18:22:57.023Z,14.40
2017-09-29T18:25:24.641Z,14.40
2017-09-29T18:27:52.324Z,14.40
2017-09-29T18:30:19.949Z,14.30
2017-09-29T18:32:47.622Z,14.20
2017-09-29T18:35:15.237Z,14.10
2017-09-29T18:37:42.857Z,14.10
2017-09-29T18:40:10.506Z,14.10
2017-09-29T18:42:38.130Z,14.10
2017-09-29T18:45:05.778Z,14.10
2017-09-29T18:47:34.157Z,13.90
2017-09-29T18:50:01.777Z,13.90
2017-09-29T18:52:30.181Z,13.90
2017-09-29T18:54:57.802Z,13.80
2017-09-29T18:57:26.232Z,13.70
2017-09-29T18:59:53.854Z,13.70
2017-09-29T19:02:21.482Z,13.70
2017-09-29T19:04:49.136Z,13.70
2017-09-29T19:07:16.760Z,13.80
2017-09-29T19:09:44.420Z,13.80
2017-09-29T19:12:12.038Z,13.90
2017-09-29T19:14:39.661Z,14.00
2017-09-29T19:17:07.302Z,13.90
2017-09-29T19:19:34.922Z,13.80
2017-09-29T19:22:02.578Z,13.90
2017-09-29T19:24:30.199Z,13.90
2017-09-29T19:26:57.818Z,14.00
2017-09-29T19:29:25.465Z,14.00
2017-09-29T19:31:53.865Z,13.90
2017-09-29T19:34:21.557Z,13.80
2017-09-29T19:36:49.187Z,13.90
2017-09-29T19:39:16.804Z,14.00
2017-09-29T19:41:44.464Z,14.00
2017-09-29T19:44:12.081Z,14.00
2017-09-29T19:46:39.744Z,14.00
2017-09-29T19:49:07.362Z,14.00
2017-09-29T19:51:34.981Z,14.00
2017-09-29T19:54:02.628Z,13.80
2017-09-29T19:56:30.250Z,13.90
2017-09-29T19:58:57.916Z,13.90
2017-09-29T20:01:25.541Z,13.90
2017-09-29T20:03:53.161Z,13.80
2017-09-29T20:06:20.802Z,14.00
2017-09-29T20:08:48.425Z,14.10
2017-09-29T20:11:16.846Z,14.30
2017-09-29T20:13:44.469Z,14.20
2017-09-29T20:16:12.107Z,14.20
2017-09-29T20:18:39.754Z,14.20
2017-09-29T20:21:07.378Z,14.20
2017-09-29T20:23:35.804Z,14.00
2017-09-29T20:26:03.427Z,14.00
2017-09-29T20:28:31.049Z,14.00
2017-09-29T20:30:58.691Z,14.10
2017-09-29T20:33:26.306Z,14.20
2017-09-29T20:35:54.737Z,14.40
2017-09-29T20:38:22.353Z,14.40
2017-09-29T20:40:49.974Z,14.40
2017-09-29T20:43:18.393Z,14.40
2017-09-29T20:45:46.013Z,14.30
2017-09-29T20:48:13.674Z,14.40
2017-09-29T20:50:41.297Z,14.40
2017-09-29T20:53:08.928Z,14.40
2017-09-29T20:55:37.342Z,14.40
2017-09-29T20:58:04.965Z,14.40
2017-09-29T21:00:32.625Z,14.50
2017-09-29T21:03:00.241Z,14.50
2017-09-29T21:05:27.855Z,14.40
2017-09-29T21:07:55.550Z,14.40
2017-09-29T21:10:23.165Z,14.50
2017-09-29T21:12:50.824Z,14.50
2017-09-29T21:15:19.205Z,14.40
2017-09-29T21:17:46.821Z,14.30
2017-09-29T21:20:15.242Z,14.40
2017-09-29T21:22:42.862Z,14.30
2017-09-29T21:25:10.517Z,14.40
2017-09-29T21:27:38.168Z,14.40
2017-09-29T21:30:05.790Z,14.40
2017-09-29T21:32:33.446Z,14.40
2017-09-29T21:35:01.074Z,14.40
2017-09-29T21:37:29.458Z,14.40
2017-09-29T21:39:57.099Z,14.40
2017-09-29T21:42:24.717Z,14.40
2017-09-29T21:44:52.371Z,14.40
2017-09-29T21:47:20.754Z,14.40
2017-09-29T21:49:48.369Z,14.30
2017-09-29T21:52:16.021Z,14.40
2017-09-29T21:54:43.636Z,14.40
2017-09-29T21:57:11.290Z,14.30
2017-09-29T21:59:38.915Z,14.30
2017-09-29T22:02:06.539Z,14.20
2017-09-29T22:04:34.198Z,14.20
2017-09-29T22:07:01.815Z,14.30
2017-09-29T22:09:30.237Z,14.30
2017-09-29T22:11:57.860Z,14.20
2017-09-29T22:14:25.484Z,14.20
2017-09-29T22:16:53.130Z,14.20
2017-09-29T22:19:20.747Z,14.20
2017-09-29T22:21:48.405Z,14.20
2017-09-29T22:24:16.790Z,14.20
2017-09-29T22:26:44.414Z,14.20
2017-09-29T22:29:12.833Z,14.20
2017-09-29T22:31:40.461Z,14.10
2017-09-29T22:34:08.120Z,14.20
2017-09-29T22:36:35.748Z,14.10
2017-09-29T22:39:03.378Z,14.10
2017-09-29T22:41:31.037Z,14.10
2017-09-29T22:43:58.662Z,14.10
2017-09-29T22:46:26.326Z,14.10
2017-09-29T22:48:53.942Z,14.10
2017-09-29T22:51:22.326Z,14.10
2017-09-29T22:53:49.962Z,14.10
2017-09-29T22:56:17.589Z,14.10
2017-09-29T22:58:45.249Z,14.00
2017-09-29T23:01:13.634Z,14.00
2017-09-29T23:03:41.256Z,14.00
2017-09-29T23:06:09.717Z,14.00
2017-09-29T23:08:37.333Z,14.00
2017-09-29T23:11:04.996Z,14.10
2017-09-29T23:13:32.635Z,14.10
2017-09-29T23:16:00.270Z,14.10
2017-09-29T23:18:27.910Z,14.00
2017-09-29T23:20:55.538Z,14.00
2017-09-29T23:23:23.197Z,13.90
2017-09-29T23:25:50.822Z,13.80
2017-09-29T23:28:18.436Z,13.80
2017-09-29T23:30:46.077Z,13.80
2017-09-29T23:33:13.698Z,13.80
2017-09-29T23:35:41.363Z,13.80
2017-09-29T23:38:08.997Z,13.70
2017-09-29T23:40:36.622Z,13.70
2017-09-29T23:43:04.266Z,13.70
2017-09-29T23:45:31.890Z,13.70
2017-09-29T23:47:59.546Z,13.60
2017-09-29T23:50:27.158Z,13.60
2017-09-29T23:52:55.545Z,13.60
2017-09-29T23:55:23.185Z,13.50
2017-09-29T23:57:50.802Z,13.50
